map of SJD home
SJD - Airport
Location
City:  Los Cabos, Baja California Sur, México
Near (Alt.):San José del Cabo
Name:Los Cabos International Airport
ICAO:MMSD
IATA:SJD

Details
Type:Airport (Aerodrome, Airfield)
Use:Public/Civil, International (customs port of entry)
Latitude:23°09'07"N (23.151850)
Longitude:109°43'16"W (-109.721043)
Datum:WGS 1984
Elevation:374 ft (114 m)
Variation:8.25°E (WMM2015 magnetic declination)
-0.09° annual change
Runways:1
Longest:9843 × 148 ft (3000 × 45 m), paved

Time
Time Zone:UTC-7 (DST-6)
Local Time:

Weather
METAR:MMSD 231640Z 30006KT 12SM BKN120 BKN250 30/18 A2981 RMK 8/038

Related Locations
Nearby:
Farthest:RRG: 11941 mi / 19217 km
Plaine Corail [Sir Gaëtan Duval Airport (Plaine Corail Airport)], Rodrigues Island, MU

Find:

   beyond  
but within

Other Information
Maps:
NOTAMs:
Links:
Sources:

  
  • flag of México
  • flag of Baja California Sur
  

Sectional Chart

Flight Planning
at skyvector.com

Satellite Image

Google Maps Satellite view

 

Copyright © 2004-2018 Karl L. Swartz. All rights reserved.
The Great Circle Mapper name and logo are trademarks of the Great Circle Mapper.
All other trademarks mentioned herein belong to their respective owners.
Please see credits for attibutions and further copyright information.

  Follow gcmap on Facebook Follow gcmap on Twitter Follow gcmap on Google+ GCmap on LinkedIn

hCard Microformat

Geo Microformat